createdAt,value
2019-05-10T00:00:45.195Z,12.39
2019-05-10T00:06:05.320Z,12.43
2019-05-10T00:11:26.854Z,12.31
2019-05-10T00:16:29.035Z,17.07
2019-05-10T00:21:32.325Z,25.81
2019-05-10T00:26:34.390Z,13.22
2019-05-10T00:31:36.309Z,13.36
2019-05-10T00:36:38.383Z,12.87
2019-05-10T00:41:40.190Z,12.89
2019-05-10T00:46:42.129Z,12.32
2019-05-10T00:51:44.064Z,13.01
2019-05-10T00:56:46.307Z,12.98
2019-05-10T01:01:49.420Z,12.81
2019-05-10T01:06:51.497Z,12.99
2019-05-10T01:11:53.398Z,13.05
2019-05-10T01:16:55.411Z,12.94
2019-05-10T01:21:57.223Z,12.74
2019-05-10T01:26:59.377Z,13.13
2019-05-10T01:32:01.369Z,13.02
2019-05-10T01:37:03.388Z,12.31
2019-05-10T01:42:05.293Z,12.80
2019-05-10T01:47:07.110Z,12.98
2019-05-10T01:52:09.014Z,12.90
2019-05-10T01:57:10.948Z,12.97
2019-05-10T02:02:12.866Z,13.02
2019-05-10T02:07:15.292Z,12.74
2019-05-10T02:12:17.202Z,12.81
2019-05-10T02:17:21.219Z,12.58
2019-05-10T02:22:23.150Z,12.88
2019-05-10T02:27:26.158Z,12.66
2019-05-10T02:32:27.982Z,12.73
2019-05-10T02:37:30.198Z,12.39
2019-05-10T02:42:32.016Z,12.45
2019-05-10T02:47:35.119Z,12.53
2019-05-10T02:52:39.113Z,12.29
2019-05-10T02:57:42.407Z,12.33
2019-05-10T03:02:44.903Z,12.60
2019-05-10T03:07:47.597Z,12.49
2019-05-10T03:12:52.229Z,12.46
2019-05-10T03:17:56.190Z,12.20
2019-05-10T03:22:59.253Z,12.61
2019-05-10T03:28:01.175Z,12.58
2019-05-10T03:33:03.232Z,12.61
2019-05-10T03:38:11.118Z,12.66
2019-05-10T03:43:13.193Z,12.56
2019-05-10T03:48:15.019Z,12.43
2019-05-10T03:53:19.447Z,12.43
2019-05-10T03:58:21.332Z,12.25
2019-05-10T04:03:25.338Z,12.19
2019-05-10T04:08:29.157Z,12.05
2019-05-10T04:13:31.078Z,12.22
2019-05-10T04:18:35.819Z,11.98
2019-05-10T04:23:39.392Z,12.39
2019-05-10T04:28:42.957Z,12.18
2019-05-10T04:33:46.499Z,12.18
2019-05-10T04:38:48.608Z,12.26
2019-05-10T04:43:50.833Z,12.47
2019-05-10T04:48:54.887Z,12.27
2019-05-10T04:54:00.450Z,12.22
2019-05-10T04:59:03.586Z,12.07
2019-05-10T05:04:07.257Z,12.24
2019-05-10T05:09:09.194Z,12.18
2019-05-10T05:14:11.136Z,12.18
2019-05-10T05:19:14.202Z,12.18
2019-05-10T05:24:22.324Z,12.25
2019-05-10T05:29:20.360Z,12.31
2019-05-10T05:34:22.308Z,12.17
2019-05-10T05:39:24.165Z,12.26
2019-05-10T05:44:28.900Z,12.55
2019-05-10T05:49:30.710Z,12.64
2019-05-10T05:54:34.063Z,12.75
2019-05-10T05:59:37.193Z,12.75
2019-05-10T06:04:40.732Z,12.91
2019-05-10T06:09:44.246Z,13.01
2019-05-10T06:14:49.991Z,12.94
2019-05-10T06:19:51.767Z,13.13
2019-05-10T06:24:54.027Z,13.69
2019-05-10T06:29:56.034Z,13.55
2019-05-10T06:34:57.972Z,13.78
2019-05-10T06:40:02.892Z,13.77
2019-05-10T06:45:14.285Z,13.89
2019-05-10T06:50:12.323Z,14.05
2019-05-10T06:55:14.296Z,14.03
2019-05-10T07:00:17.677Z,13.54
2019-05-10T07:05:19.690Z,13.82
2019-05-10T07:10:25.167Z,13.82
2019-05-10T07:15:25.479Z,13.80
2019-05-10T07:20:29.621Z,14.14
2019-05-10T07:25:37.699Z,14.08
2019-05-10T07:30:41.612Z,14.55
2019-05-10T07:35:45.123Z,14.60
2019-05-10T07:40:48.810Z,14.82
2019-05-10T07:45:50.765Z,14.66
2019-05-10T07:50:52.761Z,15.23
2019-05-10T07:55:59.935Z,15.20
2019-05-10T08:00:58.670Z,15.26
2019-05-10T08:06:02.292Z,16.45
2019-05-10T08:11:04.209Z,15.99
2019-05-10T08:16:11.803Z,15.93
2019-05-10T08:21:21.820Z,15.32
2019-05-10T08:26:24.127Z,15.31
2019-05-10T08:31:25.915Z,15.17
2019-05-10T08:36:28.815Z,16.79
2019-05-10T08:41:32.682Z,16.11
2019-05-10T08:46:41.282Z,15.61
2019-05-10T08:51:43.788Z,14.55
2019-05-10T08:56:46.686Z,14.54
2019-05-10T09:01:50.896Z,14.41
2019-05-10T09:06:55.555Z,15.37
2019-05-10T09:11:57.733Z,15.96
2019-05-10T09:17:05.074Z,15.58
2019-05-10T09:22:06.898Z,16.33
2019-05-10T09:27:08.918Z,16.21
2019-05-10T09:32:12.588Z,15.53
2019-05-10T09:37:17.697Z,14.41
2019-05-10T09:42:26.424Z,14.93
2019-05-10T09:47:23.101Z,15.38
2019-05-10T09:52:26.397Z,15.86
2019-05-10T09:57:32.284Z,15.86
2019-05-10T10:02:34.435Z,15.99
2019-05-10T10:07:37.367Z,16.84
2019-05-10T10:12:39.464Z,16.26
2019-05-10T10:17:42.491Z,16.83
2019-05-10T10:22:52.616Z,16.45
2019-05-10T10:27:53.141Z,16.46
2019-05-10T10:32:55.292Z,16.34
2019-05-10T10:38:02.226Z,16.00
2019-05-10T10:43:00.923Z,16.42
2019-05-10T10:48:10.643Z,16.56
2019-05-10T10:53:08.010Z,16.79
2019-05-10T10:58:10.140Z,16.58
2019-05-10T11:03:12.061Z,17.10
2019-05-10T11:08:17.763Z,17.50
2019-05-10T11:13:39.862Z,15.54
2019-05-10T11:18:23.447Z,15.72
2019-05-10T11:23:34.008Z,15.62
2019-05-10T11:28:30.131Z,16.11
2019-05-10T11:33:33.978Z,18.32
2019-05-10T11:38:36.151Z,18.23
2019-05-10T11:43:38.612Z,18.24
2019-05-10T11:48:42.667Z,17.45
2019-05-10T11:53:49.082Z,16.37
2019-05-10T11:58:55.554Z,17.02
2019-05-10T12:03:56.571Z,17.53
2019-05-10T12:09:02.149Z,17.94
2019-05-10T12:14:02.698Z,18.26
2019-05-10T12:19:17.065Z,16.91
2019-05-10T12:24:31.181Z,18.08
2019-05-10T12:29:18.155Z,17.53
2019-05-10T12:34:20.703Z,18.10
2019-05-10T12:39:24.581Z,17.37
2019-05-10T12:44:28.556Z,18.67
2019-05-10T12:49:31.510Z,18.29
2019-05-10T12:54:35.768Z,18.77
2019-05-10T12:59:37.628Z,18.24
2019-05-10T13:04:52.466Z,18.57
2019-05-10T13:09:56.086Z,17.87
2019-05-10T13:14:57.004Z,17.17
2019-05-10T13:20:00.599Z,17.95
2019-05-10T13:25:03.941Z,18.20
2019-05-10T13:30:06.962Z,18.11
2019-05-10T13:35:09.006Z,18.25
2019-05-10T13:40:13.667Z,17.29
2019-05-10T13:45:15.661Z,18.13
2019-05-10T13:50:19.113Z,17.49
2019-05-10T13:55:24.793Z,17.60
2019-05-10T14:00:34.231Z,17.75
2019-05-10T14:05:33.093Z,17.28
2019-05-10T14:10:36.727Z,17.75
2019-05-10T14:15:38.748Z,17.12
2019-05-10T14:20:40.651Z,16.80
2019-05-10T14:25:42.549Z,17.11
2019-05-10T14:30:46.961Z,16.67
2019-05-10T14:35:48.414Z,18.10
2019-05-10T14:40:50.284Z,17.46
2019-05-10T14:45:56.637Z,16.75
2019-05-10T14:51:03.044Z,16.97
2019-05-10T14:56:07.893Z,16.89
2019-05-10T15:01:06.639Z,16.73
2019-05-10T15:06:08.882Z,16.98
2019-05-10T15:11:11.976Z,17.09
2019-05-10T15:16:26.083Z,16.60
2019-05-10T15:21:18.517Z,17.22
2019-05-10T15:26:20.511Z,17.80
2019-05-10T15:31:23.671Z,16.94
2019-05-10T15:36:29.836Z,17.08
2019-05-10T15:41:30.611Z,16.49
2019-05-10T15:46:38.690Z,16.43
2019-05-10T15:51:36.894Z,16.37
2019-05-10T15:56:41.475Z,16.79
2019-05-10T16:01:46.025Z,17.14
2019-05-10T16:06:50.983Z,17.53
2019-05-10T16:11:56.186Z,17.44
2019-05-10T16:17:00.678Z,17.05
2019-05-10T16:22:02.585Z,17.24
2019-05-10T16:27:04.840Z,17.25
2019-05-10T16:32:06.833Z,16.68
2019-05-10T16:37:10.661Z,16.67
2019-05-10T16:42:12.573Z,16.65
2019-05-10T16:47:14.493Z,16.24
2019-05-10T16:52:19.515Z,15.89
2019-05-10T16:57:20.525Z,15.97
2019-05-10T17:02:25.465Z,15.45
2019-05-10T17:07:27.532Z,15.51
2019-05-10T17:12:29.462Z,15.44
2019-05-10T17:17:37.077Z,15.12
2019-05-10T17:22:35.550Z,15.61
2019-05-10T17:27:37.491Z,15.63
2019-05-10T17:32:39.610Z,15.50
2019-05-10T17:37:41.750Z,15.82
2019-05-10T17:42:51.506Z,15.74
2019-05-10T17:47:53.107Z,14.99
2019-05-10T17:52:56.428Z,15.33
2019-05-10T17:57:58.854Z,14.84
2019-05-10T18:03:00.752Z,14.84
2019-05-10T18:08:02.702Z,14.98
2019-05-10T18:13:05.260Z,14.88
2019-05-10T18:18:07.473Z,14.81
2019-05-10T18:23:09.508Z,14.88
2019-05-10T18:28:11.558Z,14.56
2019-05-10T18:33:19.142Z,14.42
2019-05-10T18:38:24.045Z,14.39
2019-05-10T18:43:26.136Z,14.05
2019-05-10T18:48:30.632Z,13.90
2019-05-10T18:53:32.684Z,13.72
2019-05-10T18:58:34.599Z,13.60
2019-05-10T19:03:36.598Z,13.63
2019-05-10T19:08:38.498Z,13.40
2019-05-10T19:13:47.331Z,13.27
2019-05-10T19:18:44.250Z,13.02
2019-05-10T19:23:46.100Z,13.00
2019-05-10T19:28:47.976Z,12.82
2019-05-10T19:33:49.920Z,13.09
2019-05-10T19:38:51.954Z,12.57
2019-05-10T19:44:02.675Z,12.45
2019-05-10T19:49:00.347Z,12.28
2019-05-10T19:54:02.966Z,12.38
2019-05-10T19:59:10.913Z,12.02
2019-05-10T20:04:09.559Z,11.97
2019-05-10T20:09:11.582Z,12.05
2019-05-10T20:14:15.337Z,11.79
2019-05-10T20:19:17.219Z,11.64
2019-05-10T20:24:23.196Z,11.73
2019-05-10T20:29:26.423Z,11.68
2019-05-10T20:34:31.190Z,11.57
2019-05-10T20:39:35.041Z,11.33
2019-05-10T20:44:37.054Z,11.51
2019-05-10T20:49:41.314Z,11.48
2019-05-10T20:54:44.787Z,11.07
2019-05-10T20:59:47.602Z,11.39
2019-05-10T21:04:49.590Z,11.11
2019-05-10T21:09:56.170Z,11.72
2019-05-10T21:14:58.303Z,11.48
2019-05-10T21:20:04.593Z,11.14
2019-05-10T21:25:07.741Z,10.88
2019-05-10T21:30:15.221Z,10.52
2019-05-10T21:35:18.979Z,10.81
2019-05-10T21:40:20.952Z,10.70
2019-05-10T21:45:23.035Z,10.56
2019-05-10T21:50:25.021Z,10.61
2019-05-10T21:55:27.889Z,10.77
2019-05-10T22:00:34.102Z,10.66
2019-05-10T22:05:36.278Z,10.52
2019-05-10T22:10:38.218Z,10.50
2019-05-10T22:15:40.738Z,10.65
2019-05-10T22:20:42.696Z,10.61
2019-05-10T22:25:44.730Z,10.88
2019-05-10T22:30:46.697Z,10.93
2019-05-10T22:35:48.810Z,10.78
2019-05-10T22:40:50.745Z,10.61
2019-05-10T22:45:54.222Z,10.48
2019-05-10T22:50:58.523Z,10.48
2019-05-10T22:56:00.879Z,10.47
2019-05-10T23:01:02.802Z,10.44
2019-05-10T23:06:04.903Z,10.28
2019-05-10T23:11:08.337Z,10.31
2019-05-10T23:16:10.352Z,10.33
2019-05-10T23:21:14.939Z,10.14
2019-05-10T23:26:17.142Z,10.06
2019-05-10T23:31:18.984Z,9.44
2019-05-10T23:36:21.044Z,9.57
2019-05-10T23:41:25.264Z,9.98
2019-05-10T23:46:27.461Z,9.93
2019-05-10T23:51:29.400Z,9.75
2019-05-10T23:56:32.444Z,9.51
